Time;durP1;ratioP1;P1;durP2;ratioP2;P2;SDS_P1;SDS_P2;PMS_P1;PMS_P2;Temp;Humidity;BMP_temperature;BMP_pressure;BME280_temperature;BME280_humidity;BME280_pressure;Samples;Min_cycle;Max_cycle;Signal;HPM_P1;HPM_P2
2021/10/03 00:01:18;;;;;;;2.40;0.52;;;12.70;93.90;;;;;;5027212;28;20045;-66
2021/10/03 00:03:47;;;;;;;1.30;0.50;;;12.70;93.80;;;;;;5027222;28;20053;-67
2021/10/03 00:06:14;;;;;;;3.13;0.75;;;12.70;93.70;;;;;;5026423;28;20077;-65
2021/10/03 00:08:41;;;;;;;1.95;0.60;;;12.70;93.60;;;;;;5025603;28;20053;-65
2021/10/03 00:11:08;;;;;;;2.47;0.40;;;12.70;93.60;;;;;;5027428;28;20041;-65
2021/10/03 00:13:35;;;;;;;3.17;0.70;;;12.70;93.30;;;;;;5027114;28;20061;-65
2021/10/03 00:16:02;;;;;;;2.53;0.40;;;12.60;93.60;;;;;;5027161;28;20056;-65
2021/10/03 00:18:29;;;;;;;5.43;0.70;;;12.60;93.60;;;;;;5025672;28;20087;-64
2021/10/03 00:20:56;;;;;;;1.25;0.50;;;12.60;93.30;;;;;;5026747;28;20576;-66
2021/10/03 00:23:23;;;;;;;2.30;0.60;;;12.60;93.50;;;;;;5027347;28;20124;-65
2021/10/03 00:25:49;;;;;;;2.33;0.57;;;12.60;93.10;;;;;;5027395;28;20100;-66
2021/10/03 00:28:17;;;;;;;3.70;0.65;;;12.60;93.20;;;;;;5027221;28;20073;-65
2021/10/03 00:30:44;;;;;;;3.80;0.88;;;12.60;93.40;;;;;;5026392;28;20127;-68
2021/10/03 00:33:11;;;;;;;4.53;0.60;;;12.60;93.40;;;;;;5026230;28;20083;-65
2021/10/03 00:35:37;;;;;;;0.73;0.50;;;12.60;93.50;;;;;;5025499;28;20096;-65
2021/10/03 00:38:04;;;;;;;2.97;0.70;;;12.60;93.30;;;;;;5026886;28;20133;-66
2021/10/03 00:40:32;;;;;;;7.40;1.13;;;12.50;93.30;;;;;;5026779;28;20046;-66
2021/10/03 00:43:02;;;;;;;3.47;0.55;;;12.60;93.30;;;;;;5026483;28;20151;-66
2021/10/03 00:45:29;;;;;;;1.20;0.50;;;12.50;93.30;;;;;;5026502;28;20081;-65
2021/10/03 00:47:57;;;;;;;4.53;0.70;;;12.50;93.20;;;;;;5026825;28;20224;-65
2021/10/03 00:50:24;;;;;;;1.70;0.40;;;12.50;93.30;;;;;;5026872;28;20168;-64
2021/10/03 00:52:51;;;;;;;6.38;1.20;;;12.40;92.90;;;;;;5027429;28;20128;-65
2021/10/03 00:55:18;;;;;;;5.22;1.10;;;12.50;93.10;;;;;;5025341;28;20053;-65
2021/10/03 00:57:46;;;;;;;6.43;0.80;;;12.40;93.20;;;;;;5027237;28;20049;-65
2021/10/03 01:00:13;;;;;;;6.65;0.98;;;12.40;93.00;;;;;;5026946;28;20081;-66
2021/10/03 01:02:41;;;;;;;2.85;0.68;;;12.40;93.10;;;;;;4680695;28;9999989;-65
2021/10/03 01:05:08;;;;;;;1.40;0.68;;;12.40;92.70;;;;;;5033595;28;20060;-67
2021/10/03 01:07:36;;;;;;;4.95;0.77;;;12.40;93.00;;;;;;5024096;28;20136;-66
2021/10/03 01:10:07;;;;;;;4.43;0.75;;;12.40;93.00;;;;;;5027131;28;20136;-67
2021/10/03 01:12:34;;;;;;;3.90;0.77;;;12.40;92.80;;;;;;5026602;28;20049;-65
2021/10/03 01:15:04;;;;;;;2.00;0.60;;;12.40;92.80;;;;;;5026779;28;20354;-65
2021/10/03 01:17:31;;;;;;;4.85;1.00;;;12.40;93.00;;;;;;5026783;28;20084;-65
2021/10/03 01:19:58;;;;;;;3.10;0.68;;;12.40;92.90;;;;;;5027207;28;20141;-65
2021/10/03 01:22:25;;;;;;;2.25;0.70;;;12.40;92.90;;;;;;5026609;28;20416;-65
2021/10/03 01:24:53;;;;;;;3.75;0.77;;;12.40;92.70;;;;;;5025511;28;20119;-65
2021/10/03 01:27:21;;;;;;;3.25;0.65;;;12.30;92.60;;;;;;5026928;28;20084;-65
2021/10/03 01:29:49;;;;;;;3.30;0.80;;;12.30;92.40;;;;;;5026817;28;20096;-65
2021/10/03 01:32:17;;;;;;;5.65;0.80;;;12.30;92.50;;;;;;5009009;28;20160;-65
2021/10/03 01:34:44;;;;;;;2.20;1.02;;;12.30;92.50;;;;;;5026596;28;20084;-64
2021/10/03 01:37:11;;;;;;;5.40;0.60;;;12.30;92.70;;;;;;5026789;28;20473;-64
2021/10/03 01:39:39;;;;;;;1.70;0.70;;;12.30;92.70;;;;;;5027109;28;20046;-64
2021/10/03 01:42:06;;;;;;;1.98;0.70;;;12.30;92.30;;;;;;5025128;28;20053;-64
2021/10/03 01:44:33;;;;;;;4.50;0.82;;;12.30;92.40;;;;;;5030369;28;20515;-65
2021/10/03 01:47:00;;;;;;;6.35;0.70;;;12.30;92.40;;;;;;5030332;28;20053;-65
2021/10/03 01:49:28;;;;;;;1.60;0.60;;;12.30;92.50;;;;;;5030576;28;20054;-65
2021/10/03 01:51:54;;;;;;;3.70;0.70;;;12.30;92.50;;;;;;5030478;28;20037;-66
2021/10/03 01:54:21;;;;;;;2.75;0.75;;;12.30;92.10;;;;;;5029062;28;20145;-64
2021/10/03 01:56:49;;;;;;;5.28;0.75;;;12.20;92.50;;;;;;5030302;28;20037;-66
2021/10/03 01:59:17;;;;;;;0.82;0.40;;;12.20;92.30;;;;;;5030062;28;20053;-65
2021/10/03 02:01:44;;;;;;;8.98;0.80;;;12.20;92.20;;;;;;5029861;28;20050;-64
2021/10/03 02:04:21;;;;;;;1.17;0.55;;;12.20;92.40;;;;;;5030341;28;20107;-64
2021/10/03 02:06:49;;;;;;;6.45;1.60;;;12.20;92.20;;;;;;5016234;28;20069;-64
2021/10/03 02:09:18;;;;;;;2.78;0.95;;;12.20;92.30;;;;;;5030040;28;20057;-64
2021/10/03 02:11:50;;;;;;;2.38;0.50;;;12.20;92.40;;;;;;5030087;28;20041;-64
2021/10/03 02:14:18;;;;;;;4.47;0.63;;;12.20;92.00;;;;;;5024533;28;20107;-65
2021/10/03 02:16:44;;;;;;;2.58;0.60;;;12.20;92.30;;;;;;5030015;28;20055;-65
2021/10/03 02:19:11;;;;;;;5.90;3.53;;;12.20;92.30;;;;;;5030003;28;20408;-65
2021/10/03 02:21:38;;;;;;;4.93;0.80;;;12.10;92.50;;;;;;5029847;28;20478;-64
2021/10/03 02:24:06;;;;;;;2.65;1.00;;;12.20;92.60;;;;;;5024741;28;20077;-65
2021/10/03 02:26:33;;;;;;;2.08;0.80;;;12.10;92.30;;;;;;5028580;28;20095;-64
2021/10/03 02:29:00;;;;;;;3.22;0.98;;;12.10;92.30;;;;;;5029806;28;20069;-64
2021/10/03 02:31:27;;;;;;;1.35;0.60;;;12.10;92.50;;;;;;5028424;28;20554;-64
2021/10/03 02:33:54;;;;;;;3.20;0.75;;;12.10;92.50;;;;;;5029548;28;20049;-65
2021/10/03 02:36:22;;;;;;;5.88;0.77;;;12.10;92.60;;;;;;5030077;28;20149;-64
2021/10/03 02:38:49;;;;;;;7.68;0.93;;;12.10;92.50;;;;;;5028393;28;20828;-65
2021/10/03 02:41:19;;;;;;;0.85;0.40;;;12.10;92.30;;;;;;5029523;28;20454;-65
2021/10/03 02:43:47;;;;;;;4.18;1.00;;;12.10;92.20;;;;;;5028312;28;20103;-65
2021/10/03 02:46:14;;;;;;;3.40;0.55;;;12.10;92.50;;;;;;5029573;28;20049;-66
2021/10/03 02:48:47;;;;;;;4.95;0.70;;;12.10;92.30;;;;;;5029431;28;20488;-64
2021/10/03 02:51:15;;;;;;;7.60;1.10;;;12.10;92.40;;;;;;5031792;28;20128;-65
2021/10/03 02:53:42;;;;;;;2.42;0.52;;;12.10;92.50;;;;;;5028194;28;20337;-65
2021/10/03 02:56:10;;;;;;;12.23;1.08;;;12.00;92.40;;;;;;5024253;28;20060;-65
2021/10/03 02:58:37;;;;;;;3.22;0.70;;;12.00;92.60;;;;;;5027513;28;20532;-65
2021/10/03 03:01:03;;;;;;;1.83;0.57;;;12.00;92.40;;;;;;5028783;28;20129;-64
2021/10/03 03:03:30;;;;;;;2.20;0.52;;;12.00;92.30;;;;;;5027399;28;20042;-64
2021/10/03 03:05:57;;;;;;;4.43;0.75;;;11.90;92.30;;;;;;5028969;28;20045;-65
2021/10/03 03:08:24;;;;;;;5.03;0.88;;;12.00;92.50;;;;;;5028740;28;20145;-64
2021/10/03 03:10:50;;;;;;;3.13;1.05;;;12.00;92.30;;;;;;5028572;28;20107;-65
2021/10/03 03:13:17;;;;;;;2.47;0.50;;;12.00;92.50;;;;;;5028338;28;20136;-64
2021/10/03 03:15:44;;;;;;;5.40;1.30;;;11.90;92.50;;;;;;5027165;28;20068;-65
2021/10/03 03:18:10;;;;;;;4.00;0.70;;;12.00;92.70;;;;;;5028850;28;20060;-66
2021/10/03 03:20:37;;;;;;;11.13;2.22;;;12.00;92.40;;;;;;5028140;28;20045;-65
2021/10/03 03:23:04;;;;;;;3.50;0.70;;;11.90;92.40;;;;;;5028496;28;20156;-66
2021/10/03 03:25:31;;;;;;;6.07;0.90;;;11.90;92.50;;;;;;5028261;28;20076;-64
2021/10/03 03:27:58;;;;;;;10.95;1.30;;;12.00;92.50;;;;;;5028553;28;20077;-65
2021/10/03 03:30:24;;;;;;;3.90;0.63;;;12.00;92.30;;;;;;5027910;28;20848;-64
2021/10/03 03:32:51;;;;;;;3.03;0.80;;;12.00;92.40;;;;;;5028116;28;20081;-65
2021/10/03 03:35:18;;;;;;;6.20;0.80;;;12.00;92.40;;;;;;5028232;28;20068;-64
2021/10/03 03:37:45;;;;;;;2.22;0.80;;;12.00;92.50;;;;;;5028062;28;20077;-64
2021/10/03 03:40:12;;;;;;;2.72;0.70;;;12.00;92.30;;;;;;5028202;28;20081;-65
2021/10/03 03:42:39;;;;;;;6.82;0.80;;;12.00;92.20;;;;;;5027886;28;20127;-65
2021/10/03 03:45:06;;;;;;;1.38;0.60;;;12.00;92.20;;;;;;5027707;28;20072;-64
2021/10/03 03:47:33;;;;;;;2.88;0.50;;;11.90;92.00;;;;;;5026660;28;20085;-65
2021/10/03 03:50:00;;;;;;;5.72;1.38;;;11.90;92.10;;;;;;5027813;28;20156;-65
2021/10/03 03:52:26;;;;;;;2.40;0.55;;;11.90;92.20;;;;;;5021046;28;20155;-65
2021/10/03 03:54:53;;;;;;;4.07;0.70;;;11.90;92.20;;;;;;5028006;28;20083;-64
2021/10/03 03:57:20;;;;;;;4.60;0.63;;;11.90;92.20;;;;;;5027885;28;20069;-64
2021/10/03 03:59:47;;;;;;;5.20;0.60;;;11.90;91.80;;;;;;5027488;28;20513;-64
2021/10/03 04:02:15;;;;;;;9.20;1.58;;;11.80;91.90;;;;;;5019474;28;20464;-65
2021/10/03 04:04:42;;;;;;;3.78;0.77;;;11.80;91.90;;;;;;5009944;28;20057;-64
2021/10/03 04:07:09;;;;;;;3.88;0.77;;;11.80;91.80;;;;;;5026040;28;20168;-64
2021/10/03 04:09:36;;;;;;;3.40;0.77;;;11.80;91.80;;;;;;5027532;28;20562;-64
2021/10/03 04:12:03;;;;;;;2.67;1.00;;;11.80;91.70;;;;;;5026878;28;20080;-65
2021/10/03 04:14:29;;;;;;;4.18;0.80;;;11.80;91.80;;;;;;5027270;28;20081;-65
2021/10/03 04:16:56;;;;;;;2.55;0.80;;;11.80;91.60;;;;;;5026943;28;20080;-66
2021/10/03 04:19:23;;;;;;;4.30;0.93;;;11.80;91.50;;;;;;5027329;28;20060;-62
2021/10/03 04:21:50;;;;;;;3.60;0.90;;;11.80;91.80;;;;;;5027126;28;20051;-65
2021/10/03 04:24:16;;;;;;;3.50;0.82;;;11.90;91.80;;;;;;5026918;28;20089;-64
2021/10/03 04:26:43;;;;;;;3.10;1.05;;;11.90;91.70;;;;;;5027385;28;20076;-63
2021/10/03 04:29:10;;;;;;;3.25;0.88;;;11.90;91.80;;;;;;5026276;28;20151;-64
2021/10/03 04:31:37;;;;;;;2.70;0.70;;;11.80;91.90;;;;;;5026883;28;20128;-64
2021/10/03 04:34:04;;;;;;;3.80;0.63;;;11.80;92.00;;;;;;5027352;28;20596;-65
2021/10/03 04:36:31;;;;;;;3.25;0.70;;;11.80;91.90;;;;;;5027247;28;20084;-65
2021/10/03 04:38:57;;;;;;;5.22;0.52;;;11.80;91.90;;;;;;5027197;28;20045;-64
2021/10/03 04:41:24;;;;;;;2.50;0.63;;;11.80;92.00;;;;;;5026809;28;20077;-64
2021/10/03 04:43:51;;;;;;;4.93;0.75;;;11.80;92.10;;;;;;5026864;28;20076;-64
2021/10/03 04:46:18;;;;;;;4.10;0.82;;;11.70;92.10;;;;;;5026992;28;20061;-65
2021/10/03 04:48:45;;;;;;;2.05;0.70;;;11.70;92.00;;;;;;5025777;28;20131;-65
2021/10/03 04:51:11;;;;;;;2.45;0.60;;;11.70;91.80;;;;;;5027282;28;20080;-65
2021/10/03 04:53:38;;;;;;;4.35;0.90;;;11.70;92.10;;;;;;5026468;28;20449;-65
2021/10/03 04:56:08;;;;;;;6.88;2.05;;;11.70;92.20;;;;;;5025995;28;20068;-65
2021/10/03 04:58:35;;;;;;;4.25;1.00;;;11.70;92.20;;;;;;5025515;28;20136;-65
2021/10/03 05:01:02;;;;;;;1.30;0.60;;;11.70;92.20;;;;;;5026748;28;20088;-65
2021/10/03 05:03:30;;;;;;;2.03;0.60;;;11.60;92.20;;;;;;5026590;28;20149;-65
2021/10/03 05:05:57;;;;;;;4.50;0.73;;;11.60;92.40;;;;;;5025976;28;20095;-65
2021/10/03 05:08:24;;;;;;;5.82;0.80;;;11.60;92.30;;;;;;5026865;28;20107;-64
2021/10/03 05:10:50;;;;;;;1.75;0.60;;;11.60;92.10;;;;;;5026604;28;20105;-65
2021/10/03 05:13:17;;;;;;;3.88;0.65;;;11.60;92.10;;;;;;5026841;28;20505;-65
2021/10/03 05:15:44;;;;;;;5.30;2.15;;;11.60;92.10;;;;;;5026874;28;20095;-65
2021/10/03 05:18:11;;;;;;;2.22;0.68;;;11.60;92.00;;;;;;5028879;28;20630;-65
2021/10/03 05:20:38;;;;;;;1.65;0.50;;;11.60;92.00;;;;;;5030827;28;20042;-65
2021/10/03 05:23:04;;;;;;;4.97;0.73;;;11.50;92.10;;;;;;5030667;28;20049;-66
2021/10/03 05:25:32;;;;;;;4.47;0.52;;;11.60;92.40;;;;;;5031540;28;20049;-65
2021/10/03 05:27:59;;;;;;;8.25;0.70;;;11.50;92.30;;;;;;5033462;28;20072;-65
2021/10/03 05:30:26;;;;;;;2.45;0.60;;;11.50;92.50;;;;;;5031554;28;20045;-64
2021/10/03 05:32:52;;;;;;;4.40;0.70;;;11.50;92.60;;;;;;5031839;28;20100;-65
2021/10/03 05:35:19;;;;;;;1.45;0.73;;;11.50;92.80;;;;;;5033233;28;20049;-64
2021/10/03 05:37:46;;;;;;;1.27;0.70;;;11.50;92.50;;;;;;5033646;28;20041;-63
2021/10/03 05:40:13;;;;;;;4.78;0.90;;;11.50;92.60;;;;;;5031855;28;20127;-65
2021/10/03 05:42:40;;;;;;;7.03;1.00;;;11.40;92.50;;;;;;5033041;28;20505;-64
2021/10/03 05:45:07;;;;;;;6.63;1.45;;;11.50;92.50;;;;;;5032825;28;20119;-66
2021/10/03 05:47:34;;;;;;;4.15;0.77;;;11.50;92.60;;;;;;5033278;28;20057;-64
2021/10/03 05:50:01;;;;;;;5.95;0.73;;;11.50;92.50;;;;;;5031334;28;20045;-65
2021/10/03 05:52:27;;;;;;;4.88;0.88;;;11.50;92.40;;;;;;5027014;28;20092;-64
2021/10/03 05:54:54;;;;;;;3.03;0.68;;;11.40;92.50;;;;;;5030666;28;20122;-64
2021/10/03 05:57:21;;;;;;;3.30;1.00;;;11.50;92.30;;;;;;5030114;28;20095;-65
2021/10/03 05:59:48;;;;;;;2.90;1.15;;;11.50;92.40;;;;;;5028851;28;20103;-65
2021/10/03 06:02:14;;;;;;;3.92;0.68;;;11.50;92.60;;;;;;5029895;28;20493;-65
2021/10/03 06:04:41;;;;;;;4.00;0.70;;;11.50;92.50;;;;;;5029975;28;20042;-64
2021/10/03 06:07:08;;;;;;;4.35;0.65;;;11.40;92.30;;;;;;5029801;28;20100;-65
2021/10/03 06:09:35;;;;;;;5.00;0.68;;;11.40;92.40;;;;;;5029875;28;20065;-65
2021/10/03 06:12:04;;;;;;;8.25;1.23;;;11.40;92.30;;;;;;5029676;28;20037;-64
2021/10/03 06:14:31;;;;;;;1.75;0.50;;;11.40;92.30;;;;;;5029688;28;20142;-65
2021/10/03 06:16:58;;;;;;;3.28;0.80;;;11.40;92.10;;;;;;5029565;28;20136;-66
2021/10/03 06:19:25;;;;;;;3.85;0.60;;;11.40;92.20;;;;;;5030097;28;20049;-65
2021/10/03 06:21:51;;;;;;;2.20;0.47;;;11.40;92.10;;;;;;5028370;28;20144;-64
2021/10/03 06:24:18;;;;;;;4.30;0.88;;;11.40;92.00;;;;;;5029854;28;20057;-62
2021/10/03 06:26:48;;;;;;;8.45;0.80;;;11.40;92.00;;;;;;5029194;28;20073;-63
2021/10/03 06:29:15;;;;;;;4.45;0.98;;;11.40;92.20;;;;;;5028466;28;20095;-63
2021/10/03 06:31:42;;;;;;;4.63;0.90;;;11.50;92.30;;;;;;5028977;28;20548;-64
2021/10/03 06:34:09;;;;;;;7.22;0.90;;;11.40;92.30;;;;;;5030100;28;20078;-64
2021/10/03 06:36:37;;;;;;;2.95;0.70;;;11.40;92.20;;;;;;5029706;28;20145;-64
2021/10/03 06:39:04;;;;;;;10.80;2.63;;;11.40;92.00;;;;;;5031665;28;20108;-63
2021/10/03 06:41:31;;;;;;;8.52;0.80;;;11.40;92.30;;;;;;5032872;28;20132;-63
2021/10/03 06:43:58;;;;;;;6.57;1.02;;;11.40;92.00;;;;;;5032626;28;20653;-63
2021/10/03 06:46:25;;;;;;;3.85;1.27;;;11.40;92.20;;;;;;5032872;28;20480;-64
2021/10/03 06:48:52;;;;;;;2.35;1.02;;;11.40;92.10;;;;;;5032198;28;20053;-63
2021/10/03 06:51:18;;;;;;;7.82;2.13;;;11.40;92.30;;;;;;5031927;28;20045;-64
2021/10/03 06:53:45;;;;;;;1.90;0.60;;;11.40;92.30;;;;;;5032196;28;20477;-65
2021/10/03 06:56:12;;;;;;;9.18;0.80;;;11.40;92.20;;;;;;5030942;28;20308;-64
2021/10/03 06:58:39;;;;;;;2.13;1.00;;;11.50;92.30;;;;;;5030715;28;20092;-64
2021/10/03 07:01:06;;;;;;;4.40;1.08;;;11.40;92.10;;;;;;5032058;28;20064;-64
2021/10/03 07:03:33;;;;;;;4.47;1.05;;;11.50;92.20;;;;;;5032192;28;20139;-65
2021/10/03 07:05:59;;;;;;;4.38;1.02;;;11.50;92.40;;;;;;5029549;28;20136;-63
2021/10/03 07:08:26;;;;;;;4.45;2.47;;;11.50;92.30;;;;;;5028770;28;20057;-64
2021/10/03 07:10:53;;;;;;;9.98;1.38;;;11.50;92.30;;;;;;5028796;28;20700;-64
2021/10/03 07:13:19;;;;;;;3.13;0.90;;;11.50;92.30;;;;;;5027027;28;20425;-65
2021/10/03 07:15:46;;;;;;;6.80;0.70;;;11.50;92.30;;;;;;5028607;28;20132;-64
2021/10/03 07:18:13;;;;;;;5.28;0.80;;;11.40;92.30;;;;;;5028607;28;20136;-65
2021/10/03 07:20:40;;;;;;;1.42;0.80;;;11.40;92.40;;;;;;5029018;28;20085;-64
2021/10/03 07:23:07;;;;;;;10.25;0.82;;;11.40;92.10;;;;;;5028238;28;20136;-64
2021/10/03 07:25:34;;;;;;;8.20;2.05;;;11.40;92.10;;;;;;5025143;28;20099;-65
2021/10/03 07:28:00;;;;;;;7.55;1.02;;;11.50;91.90;;;;;;5028438;28;20076;-65
2021/10/03 07:30:28;;;;;;;4.93;2.28;;;11.50;92.20;;;;;;5028181;28;20060;-64
2021/10/03 07:32:54;;;;;;;6.25;1.05;;;11.50;92.10;;;;;;5027602;28;20504;-64
2021/10/03 07:35:21;;;;;;;4.85;1.67;;;11.50;91.90;;;;;;5027496;28;20088;-64
2021/10/03 07:37:48;;;;;;;1.70;0.77;;;11.50;91.90;;;;;;5027750;28;20144;-63
2021/10/03 07:40:15;;;;;;;4.72;0.80;;;11.50;92.00;;;;;;5027165;28;20037;-64
2021/10/03 07:42:43;;;;;;;3.88;1.50;;;11.50;92.00;;;;;;5027347;28;20045;-63
2021/10/03 07:45:10;;;;;;;10.23;2.45;;;11.50;91.80;;;;;;5027489;28;20053;-64
2021/10/03 07:47:37;;;;;;;18.02;6.80;;;11.50;91.70;;;;;;5024815;28;20435;-63
2021/10/03 07:50:05;;;;;;;8.48;3.42;;;11.50;91.70;;;;;;5027331;28;20045;-65
2021/10/03 07:52:31;;;;;;;3.67;1.75;;;11.50;91.70;;;;;;5025165;28;20426;-64
2021/10/03 07:54:58;;;;;;;9.55;1.08;;;11.50;91.60;;;;;;5024733;28;20046;-64
2021/10/03 07:57:25;;;;;;;3.38;1.13;;;11.60;91.50;;;;;;5025161;28;20484;-64
2021/10/03 07:59:52;;;;;;;3.35;1.10;;;11.50;91.60;;;;;;5025340;28;20588;-63
2021/10/03 08:02:18;;;;;;;7.63;1.45;;;11.60;91.60;;;;;;5026788;28;20052;-65
2021/10/03 08:04:45;;;;;;;6.80;1.33;;;11.60;91.80;;;;;;5026999;28;20522;-65
2021/10/03 08:07:12;;;;;;;3.70;0.75;;;11.70;91.70;;;;;;5026515;28;20045;-65
2021/10/03 08:09:39;;;;;;;1.63;0.70;;;11.70;91.60;;;;;;5026914;28;20077;-64
2021/10/03 08:12:06;;;;;;;0.98;0.70;;;11.70;91.20;;;;;;5026740;28;20141;-64
2021/10/03 08:14:33;;;;;;;7.95;1.10;;;11.70;91.30;;;;;;5026861;28;20084;-64
2021/10/03 08:16:59;;;;;;;3.83;0.68;;;11.70;90.60;;;;;;5026852;28;20143;-65
2021/10/03 08:19:29;;;;;;;5.97;1.25;;;11.70;90.70;;;;;;5026410;28;20112;-64
2021/10/03 08:21:56;;;;;;;4.18;1.05;;;11.70;90.70;;;;;;5026342;28;20041;-65
2021/10/03 08:24:22;;;;;;;9.00;0.90;;;11.80;90.50;;;;;;5026123;28;20050;-64
2021/10/03 08:26:49;;;;;;;4.57;0.80;;;11.80;90.50;;;;;;5026358;28;20511;-65
2021/10/03 08:29:17;;;;;;;4.40;0.88;;;11.80;90.50;;;;;;5024809;28;20151;-64
2021/10/03 08:31:44;;;;;;;5.25;2.05;;;11.80;88.90;;;;;;4676610;28;10000541;-64
2021/10/03 08:34:11;;;;;;;3.40;0.85;;;11.80;90.20;;;;;;5023283;28;20057;-64
2021/10/03 08:36:38;;;;;;;3.80;0.80;;;11.80;90.20;;;;;;5026000;28;20088;-64
2021/10/03 08:39:05;;;;;;;4.55;1.30;;;11.80;89.10;;;;;;5024969;28;20073;-64
2021/10/03 08:41:32;;;;;;;5.40;1.05;;;11.80;90.20;;;;;;5024881;28;20076;-64
2021/10/03 08:43:59;;;;;;;6.75;0.68;;;11.80;90.20;;;;;;5025805;28;20053;-64
2021/10/03 08:46:27;;;;;;;3.15;1.15;;;11.80;90.00;;;;;;5024149;28;20420;-64
2021/10/03 08:48:55;;;;;;;4.40;1.20;;;11.90;90.50;;;;;;5024317;28;20157;-65
2021/10/03 08:51:22;;;;;;;11.57;1.52;;;11.90;89.90;;;;;;5024054;28;20084;-63
2021/10/03 08:53:49;;;;;;;4.40;1.17;;;11.90;90.00;;;;;;5024218;28;20107;-63
2021/10/03 08:56:16;;;;;;;3.50;1.52;;;11.90;89.60;;;;;;5023887;28;20481;-65
2021/10/03 08:58:43;;;;;;;8.93;1.17;;;11.90;89.30;;;;;;5024294;28;20049;-64
2021/10/03 09:01:13;;;;;;;5.30;1.00;;;12.00;88.80;;;;;;5023926;28;20397;-64
2021/10/03 09:03:41;;;;;;;5.57;0.98;;;12.00;90.00;;;;;;5022704;28;20137;-65
2021/10/03 09:06:09;;;;;;;3.65;0.95;;;12.10;90.10;;;;;;5022373;28;20303;-63
2021/10/03 09:08:43;;;;;;;4.35;0.82;;;12.10;90.20;;;;;;5023766;28;20401;-65
2021/10/03 09:11:10;;;;;;;6.25;0.70;;;12.20;90.10;;;;;;5024079;28;20091;-63
2021/10/03 09:13:37;;;;;;;9.18;1.40;;;12.30;90.10;;;;;;5023885;28;20054;-64
2021/10/03 09:16:14;;;;;;;5.60;1.45;;;12.30;90.10;;;;;;5024083;28;20142;-64
2021/10/03 09:18:53;;;;;;;3.28;0.95;;;12.30;87.80;;;;;;5023681;28;20057;-64
2021/10/03 09:21:29;;;;;;;3.72;1.83;;;12.40;89.00;;;;;;5012118;28;20049;-63
2021/10/03 09:24:22;;;;;;;1.67;0.88;;;12.40;89.50;;;;;;5024090;28;20081;-65
2021/10/03 09:27:00;;;;;;;4.38;0.77;;;12.50;88.50;;;;;;5018027;28;20046;-64
2021/10/03 09:29:32;;;;;;;4.65;1.00;;;12.50;88.10;;;;;;5023632;28;20524;-63
2021/10/03 09:32:12;;;;;;;5.97;1.20;;;12.50;88.70;;;;;;5022210;28;20141;-63
2021/10/03 09:34:45;;;;;;;7.45;1.20;;;12.60;88.20;;;;;;5021520;28;20068;-63
2021/10/03 09:37:15;;;;;;;;;;;12.70;89.20;;;;;;5014889;28;20100;-62
2021/10/03 09:39:42;;;;;;;2.28;1.15;;;12.70;86.10;;;;;;5023595;28;19963;-62
2021/10/03 09:42:13;;;;;;;5.10;0.90;;;12.80;88.90;;;;;;5023345;28;20088;-62
2021/10/03 09:45:00;;;;;;;3.13;0.82;;;12.80;87.20;;;;;;5022552;28;20132;-62
2021/10/03 09:47:27;;;;;;;7.18;0.90;;;12.90;88.00;;;;;;5021077;28;20081;-62
2021/10/03 09:49:53;;;;;;;13.70;1.17;;;12.90;87.80;;;;;;5022498;28;20296;-63
2021/10/03 09:52:23;;;;;;;4.15;1.08;;;12.90;87.60;;;;;;5020906;28;20073;-62
2021/10/03 09:54:52;;;;;;;3.58;1.23;;;13.00;87.10;;;;;;5020586;28;20136;-63
2021/10/03 09:57:18;;;;;;;5.50;1.25;;;13.00;87.20;;;;;;5020875;28;20530;-62
2021/10/03 09:59:45;;;;;;;5.53;0.90;;;13.10;86.80;;;;;;5022592;28;20091;-62
2021/10/03 10:02:12;;;;;;;6.43;1.17;;;13.10;86.00;;;;;;5022442;28;20135;-62
2021/10/03 10:04:39;;;;;;;2.88;1.13;;;13.10;85.70;;;;;;5023545;28;20624;-62
2021/10/03 10:07:06;;;;;;;5.65;1.20;;;13.10;84.80;;;;;;5025942;28;20077;-61
2021/10/03 10:09:33;;;;;;;7.22;1.70;;;13.20;81.80;;;;;;5024950;28;20088;-62
2021/10/03 10:12:11;;;;;;;5.40;1.00;;;13.20;85.60;;;;;;5008218;28;20126;-63
2021/10/03 10:14:40;;;;;;;6.22;1.15;;;13.20;81.20;;;;;;5024000;28;20207;-63
2021/10/03 10:17:32;;;;;;;3.25;0.60;;;13.30;83.30;;;;;;5024919;28;20077;-63
2021/10/03 10:19:59;;;;;;;4.30;1.38;;;13.40;77.60;;;;;;5022788;28;20041;-62
2021/10/03 10:22:30;;;;;;;1.95;0.90;;;13.50;81.20;;;;;;5024610;28;20365;-63
2021/10/03 10:25:07;;;;;;;5.55;1.17;;;13.50;83.00;;;;;;5024526;28;20053;-63
2021/10/03 10:27:34;;;;;;;5.53;1.08;;;13.60;81.00;;;;;;5024166;28;20503;-62
2021/10/03 10:30:05;;;;;;;2.58;0.80;;;13.60;80.20;;;;;;5025509;28;20052;-63
2021/10/03 10:32:58;;;;;;;2.78;0.90;;;13.70;79.70;;;;;;5025302;28;20925;-63
2021/10/03 10:35:26;;;;;;;7.68;1.10;;;13.70;77.50;;;;;;5024901;28;20231;-63
2021/10/03 10:37:54;;;;;;;5.95;1.08;;;13.60;77.80;;;;;;5023990;28;20491;-63
2021/10/03 10:40:24;;;;;;;6.15;1.35;;;13.60;76.30;;;;;;5024778;28;20071;-64
2021/10/03 10:43:03;;;;;;;9.05;1.33;;;13.60;77.80;;;;;;5024725;28;20073;-63
2021/10/03 10:45:30;;;;;;;3.65;1.00;;;13.70;73.60;;;;;;5024449;28;20068;-63
2021/10/03 10:48:06;;;;;;;8.05;1.13;;;13.70;76.20;;;;;;5025378;28;20083;-63
2021/10/03 10:50:48;;;;;;;9.93;1.10;;;13.70;74.00;;;;;;5025442;28;20103;-63
2021/10/03 10:53:22;;;;;;;8.38;2.03;;;13.70;76.10;;;;;;5025403;28;20088;-63
2021/10/03 10:56:11;;;;;;;3.05;1.15;;;13.80;74.00;;;;;;5024578;28;20151;-62
2021/10/03 10:58:51;;;;;;;5.65;0.98;;;13.90;71.70;;;;;;5024140;28;20523;-64
2021/10/03 11:01:30;;;;;;;4.07;0.98;;;13.90;75.30;;;;;;5023620;28;20057;-63
2021/10/03 11:03:59;;;;;;;4.22;1.15;;;13.90;72.60;;;;;;5023075;28;20504;-64
2021/10/03 11:06:32;;;;;;;6.13;1.27;;;14.00;73.90;;;;;;5022317;28;20123;-63
2021/10/03 11:09:04;;;;;;;4.85;1.08;;;14.00;73.40;;;;;;5024640;28;20128;-63
2021/10/03 11:11:38;;;;;;;6.72;0.90;;;14.00;72.00;;;;;;5024757;28;20054;-63
2021/10/03 11:14:05;;;;;;;3.92;1.00;;;14.10;71.30;;;;;;5022199;28;20053;-62
2021/10/03 11:16:47;;;;;;;5.05;0.80;;;14.10;74.60;;;;;;5024240;28;20130;-63
2021/10/03 11:19:42;;;;;;;4.10;1.33;;;14.20;70.70;;;;;;5023283;28;20137;-62
2021/10/03 11:22:11;;;;;;;4.63;0.93;;;14.30;67.90;;;;;;5021171;28;20048;-63
2021/10/03 11:24:47;;;;;;;10.05;2.67;;;14.40;71.20;;;;;;5024496;28;20132;-63
2021/10/03 11:27:22;;;;;;;5.40;0.82;;;14.40;69.70;;;;;;5022976;28;20058;-62
2021/10/03 11:29:54;;;;;;;4.78;0.82;;;14.40;71.30;;;;;;5024188;28;20050;-62
2021/10/03 11:32:27;;;;;;;2.38;0.90;;;14.50;69.80;;;;;;5022185;28;20053;-62
2021/10/03 11:35:00;;;;;;;4.82;0.73;;;14.50;68.50;;;;;;5022363;28;20272;-63
2021/10/03 11:37:46;;;;;;;2.95;0.90;;;14.60;69.40;;;;;;5022702;28;20049;-64
2021/10/03 11:40:17;;;;;;;2.85;0.60;;;14.70;67.30;;;;;;5024232;28;20584;-61
2021/10/03 11:42:52;;;;;;;1.65;0.70;;;14.70;68.60;;;;;;5025292;28;20050;-63
2021/10/03 11:45:33;;;;;;;4.03;0.68;;;14.70;65.90;;;;;;5025471;28;20223;-62
2021/10/03 11:48:07;;;;;;;2.50;0.85;;;14.80;67.90;;;;;;5023303;28;20073;-63
2021/10/03 11:50:45;;;;;;;6.13;1.40;;;14.80;67.50;;;;;;5024913;28;20051;-62
2021/10/03 11:53:19;;;;;;;3.67;0.88;;;14.90;70.30;;;;;;5023739;28;20343;-63
2021/10/03 11:55:48;;;;;;;7.30;0.80;;;14.90;67.70;;;;;;5022844;28;20045;-62
2021/10/03 11:58:16;;;;;;;3.50;1.00;;;15.00;69.00;;;;;;5024737;28;20045;-62
2021/10/03 12:00:51;;;;;;;7.70;0.93;;;15.10;68.20;;;;;;5024932;28;20647;-62
2021/10/03 12:03:19;;;;;;;4.90;0.98;;;15.30;68.10;;;;;;5024608;28;20045;-63
2021/10/03 12:05:45;;;;;;;4.00;1.00;;;15.40;68.30;;;;;;5024961;28;20485;-63
2021/10/03 12:08:16;;;;;;;7.50;1.42;;;15.50;66.80;;;;;;5023513;28;20073;-61
2021/10/03 12:11:02;;;;;;;3.72;0.82;;;15.60;67.90;;;;;;5025072;28;20132;-63
2021/10/03 12:13:30;;;;;;;4.15;0.90;;;15.60;66.00;;;;;;5022860;28;20088;-64
2021/10/03 12:15:58;;;;;;;4.72;1.20;;;15.70;67.30;;;;;;5025357;28;20081;-63
2021/10/03 12:18:28;;;;;;;3.63;0.70;;;15.70;68.50;;;;;;5024503;28;20132;-64
2021/10/03 12:20:58;;;;;;;2.72;1.13;;;15.80;68.80;;;;;;5023201;28;20132;-64
2021/10/03 12:23:58;;;;;;;7.35;1.83;;;15.90;66.60;;;;;;5024423;28;20456;-61
2021/10/03 12:26:25;;;;;;;21.17;4.30;;;15.80;63.50;;;;;;5017445;28;20053;-62
2021/10/03 12:29:04;;;;;;;2.63;0.80;;;15.80;63.80;;;;;;5024451;28;20042;-62
2021/10/03 12:31:37;;;;;;;3.75;1.60;;;15.80;61.60;;;;;;5023850;28;20057;-62
2021/10/03 12:34:27;;;;;;;5.17;1.10;;;15.90;64.40;;;;;;5023496;28;20136;-62
2021/10/03 12:37:16;;;;;;;3.35;0.57;;;15.90;64.20;;;;;;5023707;28;20496;-62
2021/10/03 12:39:55;;;;;;;4.80;0.80;;;15.90;65.40;;;;;;5022431;28;20081;-63
2021/10/03 12:42:23;;;;;;;3.25;0.90;;;15.90;61.90;;;;;;5021806;28;20084;-63
2021/10/03 12:44:52;;;;;;;5.53;0.85;;;15.90;65.40;;;;;;5020961;28;20053;-63
2021/10/03 12:47:19;;;;;;;6.95;0.70;;;16.00;67.10;;;;;;5021715;28;20061;-63
2021/10/03 12:49:46;;;;;;;4.45;1.45;;;16.20;65.70;;;;;;5004743;28;20054;-64
2021/10/03 12:52:13;;;;;;;4.75;1.08;;;16.20;64.50;;;;;;5021492;28;20159;-61
2021/10/03 12:54:42;;;;;;;3.22;0.98;;;16.20;63.40;;;;;;5022461;28;20131;-62